Terminal Aerodrome Forecast
Issued by NWS Cleveland, OH

Home | Current Version | Previous Version | Graphics & Text | Print | Product List | Glossary On
Versions: 1 2 3 4 5 6 7 8 9 10 11 12 13 14 15 16 17 18 19 20 21 22 23 24 25 26 27
575
FTUS41 KCLE 182113 AAB
TAFCLE
TAF AMD
KCLE 182113Z 1821/1924 33008KT P6SM SCT080 BKN250
     FM190000 01005KT P6SM SCT050 BKN100
     FM191100 VRB03KT P6SM SCT025 BKN035
     FM191400 VRB04KT P6SM BKN040=

USA.gov is the U.S. government's official web portal to all federal, state and local government web resources and services.